sensor_id;sensor_type;location;lat;lon;timestamp;P1;durP1;ratioP1;P2;durP2;ratioP2
26303;SDS011;70693;48.680;8.890;2023-06-22T00:00:54;5.45;;;4.38;;
26303;SDS011;70693;48.680;8.890;2023-06-22T00:03:21;9.45;;;4.82;;
26303;SDS011;70693;48.680;8.890;2023-06-22T00:05:48;5.45;;;4.90;;
26303;SDS011;70693;48.680;8.890;2023-06-22T00:08:16;6.88;;;4.28;;
26303;SDS011;70693;48.680;8.890;2023-06-22T00:10:43;6.10;;;4.80;;
26303;SDS011;70693;48.680;8.890;2023-06-22T00:13:10;6.30;;;4.97;;
26303;SDS011;70693;48.680;8.890;2023-06-22T00:15:36;6.25;;;4.90;;
26303;SDS011;70693;48.680;8.890;2023-06-22T00:18:03;6.95;;;5.00;;
26303;SDS011;70693;48.680;8.890;2023-06-22T00:20:30;5.38;;;4.80;;
26303;SDS011;70693;48.680;8.890;2023-06-22T00:22:56;6.82;;;4.43;;
26303;SDS011;70693;48.680;8.890;2023-06-22T00:25:22;7.35;;;4.90;;
26303;SDS011;70693;48.680;8.890;2023-06-22T00:27:48;7.15;;;5.00;;
26303;SDS011;70693;48.680;8.890;2023-06-22T00:30:15;5.28;;;4.75;;
26303;SDS011;70693;48.680;8.890;2023-06-22T00:32:41;5.03;;;4.53;;
26303;SDS011;70693;48.680;8.890;2023-06-22T00:35:07;6.25;;;4.88;;
26303;SDS011;70693;48.680;8.890;2023-06-22T00:37:34;5.97;;;5.13;;
26303;SDS011;70693;48.680;8.890;2023-06-22T00:40:00;7.30;;;4.75;;
26303;SDS011;70693;48.680;8.890;2023-06-22T00:42:27;6.10;;;5.18;;
26303;SDS011;70693;48.680;8.890;2023-06-22T00:44:52;6.85;;;4.95;;
26303;SDS011;70693;48.680;8.890;2023-06-22T00:47:18;5.65;;;4.22;;
26303;SDS011;70693;48.680;8.890;2023-06-22T00:49:44;7.47;;;4.32;;
26303;SDS011;70693;48.680;8.890;2023-06-22T00:52:12;5.32;;;4.30;;
26303;SDS011;70693;48.680;8.890;2023-06-22T00:54:45;5.45;;;4.95;;
26303;SDS011;70693;48.680;8.890;2023-06-22T00:57:15;8.30;;;4.63;;
26303;SDS011;70693;48.680;8.890;2023-06-22T00:59:43;6.40;;;4.45;;
26303;SDS011;70693;48.680;8.890;2023-06-22T01:02:10;6.80;;;4.93;;
26303;SDS011;70693;48.680;8.890;2023-06-22T01:04:36;6.80;;;4.22;;
26303;SDS011;70693;48.680;8.890;2023-06-22T01:12:34;6.03;;;4.20;;
26303;SDS011;70693;48.680;8.890;2023-06-22T01:15:11;5.15;;;4.18;;
26303;SDS011;70693;48.680;8.890;2023-06-22T01:18:02;5.97;;;5.05;;
26303;SDS011;70693;48.680;8.890;2023-06-22T01:20:30;5.13;;;4.22;;
26303;SDS011;70693;48.680;8.890;2023-06-22T01:25:48;7.50;;;4.57;;
26303;SDS011;70693;48.680;8.890;2023-06-22T01:31:08;10.23;;;4.97;;
26303;SDS011;70693;48.680;8.890;2023-06-22T01:33:37;6.85;;;4.70;;
26303;SDS011;70693;48.680;8.890;2023-06-22T01:36:05;7.15;;;5.03;;
26303;SDS011;70693;48.680;8.890;2023-06-22T01:38:32;5.57;;;4.63;;
26303;SDS011;70693;48.680;8.890;2023-06-22T01:40:59;9.13;;;4.88;;
26303;SDS011;70693;48.680;8.890;2023-06-22T01:43:26;7.93;;;4.72;;
26303;SDS011;70693;48.680;8.890;2023-06-22T01:45:56;5.63;;;4.43;;
26303;SDS011;70693;48.680;8.890;2023-06-22T01:48:24;7.00;;;4.07;;
26303;SDS011;70693;48.680;8.890;2023-06-22T01:50:51;6.70;;;4.85;;
26303;SDS011;70693;48.680;8.890;2023-06-22T01:53:20;6.88;;;4.82;;
26303;SDS011;70693;48.680;8.890;2023-06-22T01:55:49;5.65;;;4.43;;
26303;SDS011;70693;48.680;8.890;2023-06-22T01:58:15;5.93;;;4.72;;
26303;SDS011;70693;48.680;8.890;2023-06-22T02:00:47;7.55;;;4.88;;
26303;SDS011;70693;48.680;8.890;2023-06-22T02:03:19;7.15;;;4.90;;
26303;SDS011;70693;48.680;8.890;2023-06-22T02:06:06;6.93;;;4.47;;
26303;SDS011;70693;48.680;8.890;2023-06-22T02:08:41;6.00;;;4.07;;
26303;SDS011;70693;48.680;8.890;2023-06-22T02:11:12;7.10;;;4.93;;
26303;SDS011;70693;48.680;8.890;2023-06-22T02:13:39;9.63;;;5.15;;
26303;SDS011;70693;48.680;8.890;2023-06-22T02:16:08;9.27;;;4.85;;
26303;SDS011;70693;48.680;8.890;2023-06-22T02:18:37;5.95;;;4.40;;
26303;SDS011;70693;48.680;8.890;2023-06-22T02:21:05;5.72;;;4.32;;
26303;SDS011;70693;48.680;8.890;2023-06-22T02:23:31;5.80;;;4.55;;
26303;SDS011;70693;48.680;8.890;2023-06-22T02:25:59;9.20;;;5.00;;
26303;SDS011;70693;48.680;8.890;2023-06-22T02:28:25;8.15;;;4.97;;
26303;SDS011;70693;48.680;8.890;2023-06-22T02:30:51;8.52;;;4.85;;
26303;SDS011;70693;48.680;8.890;2023-06-22T02:33:17;8.23;;;4.75;;
26303;SDS011;70693;48.680;8.890;2023-06-22T02:35:42;9.70;;;5.20;;
26303;SDS011;70693;48.680;8.890;2023-06-22T02:38:10;9.18;;;5.20;;
26303;SDS011;70693;48.680;8.890;2023-06-22T02:40:36;5.50;;;4.53;;
26303;SDS011;70693;48.680;8.890;2023-06-22T02:43:02;5.43;;;4.13;;
26303;SDS011;70693;48.680;8.890;2023-06-22T02:45:28;5.15;;;4.43;;
26303;SDS011;70693;48.680;8.890;2023-06-22T02:47:54;6.85;;;4.80;;
26303;SDS011;70693;48.680;8.890;2023-06-22T02:50:20;6.35;;;4.60;;
26303;SDS011;70693;48.680;8.890;2023-06-22T02:52:46;6.40;;;5.20;;
26303;SDS011;70693;48.680;8.890;2023-06-22T02:55:11;7.22;;;4.63;;
26303;SDS011;70693;48.680;8.890;2023-06-22T02:57:37;6.55;;;4.57;;
26303;SDS011;70693;48.680;8.890;2023-06-22T03:00:08;6.32;;;5.03;;
26303;SDS011;70693;48.680;8.890;2023-06-22T03:02:42;6.03;;;4.15;;
26303;SDS011;70693;48.680;8.890;2023-06-22T03:05:09;6.60;;;4.35;;
26303;SDS011;70693;48.680;8.890;2023-06-22T03:07:41;6.15;;;4.57;;
26303;SDS011;70693;48.680;8.890;2023-06-22T03:10:10;6.28;;;4.93;;
26303;SDS011;70693;48.680;8.890;2023-06-22T03:12:37;6.90;;;5.80;;
26303;SDS011;70693;48.680;8.890;2023-06-22T03:15:04;9.43;;;5.45;;
26303;SDS011;70693;48.680;8.890;2023-06-22T03:17:31;6.68;;;5.10;;
26303;SDS011;70693;48.680;8.890;2023-06-22T03:19:56;6.22;;;5.22;;
26303;SDS011;70693;48.680;8.890;2023-06-22T03:22:22;7.28;;;4.70;;
26303;SDS011;70693;48.680;8.890;2023-06-22T03:24:48;8.70;;;5.18;;
26303;SDS011;70693;48.680;8.890;2023-06-22T03:27:13;6.15;;;4.72;;
26303;SDS011;70693;48.680;8.890;2023-06-22T03:29:39;6.53;;;4.53;;
26303;SDS011;70693;48.680;8.890;2023-06-22T03:32:05;6.28;;;4.50;;
26303;SDS011;70693;48.680;8.890;2023-06-22T03:34:31;10.27;;;4.80;;
26303;SDS011;70693;48.680;8.890;2023-06-22T03:37:01;6.63;;;4.85;;
26303;SDS011;70693;48.680;8.890;2023-06-22T03:39:26;7.53;;;4.57;;
26303;SDS011;70693;48.680;8.890;2023-06-22T03:41:52;9.60;;;4.60;;
26303;SDS011;70693;48.680;8.890;2023-06-22T03:44:18;6.90;;;4.40;;
26303;SDS011;70693;48.680;8.890;2023-06-22T03:46:43;6.50;;;4.55;;
26303;SDS011;70693;48.680;8.890;2023-06-22T03:49:09;9.15;;;5.00;;
26303;SDS011;70693;48.680;8.890;2023-06-22T03:51:35;5.82;;;4.45;;
26303;SDS011;70693;48.680;8.890;2023-06-22T03:54:00;6.88;;;4.55;;
26303;SDS011;70693;48.680;8.890;2023-06-22T03:56:26;6.22;;;4.28;;
26303;SDS011;70693;48.680;8.890;2023-06-22T03:58:52;7.13;;;4.72;;
26303;SDS011;70693;48.680;8.890;2023-06-22T04:01:18;5.90;;;4.50;;
26303;SDS011;70693;48.680;8.890;2023-06-22T04:03:43;8.75;;;4.70;;
26303;SDS011;70693;48.680;8.890;2023-06-22T04:06:09;8.05;;;4.93;;
26303;SDS011;70693;48.680;8.890;2023-06-22T04:08:35;8.43;;;4.78;;
26303;SDS011;70693;48.680;8.890;2023-06-22T04:11:00;6.43;;;4.40;;
26303;SDS011;70693;48.680;8.890;2023-06-22T04:13:26;6.53;;;4.53;;
26303;SDS011;70693;48.680;8.890;2023-06-22T04:15:52;7.80;;;4.25;;
26303;SDS011;70693;48.680;8.890;2023-06-22T04:18:17;7.60;;;4.88;;
26303;SDS011;70693;48.680;8.890;2023-06-22T04:20:43;6.53;;;4.40;;
26303;SDS011;70693;48.680;8.890;2023-06-22T04:23:11;5.88;;;4.40;;
26303;SDS011;70693;48.680;8.890;2023-06-22T04:25:37;5.53;;;4.20;;
26303;SDS011;70693;48.680;8.890;2023-06-22T04:28:03;7.38;;;4.93;;
26303;SDS011;70693;48.680;8.890;2023-06-22T04:30:29;6.15;;;4.57;;
26303;SDS011;70693;48.680;8.890;2023-06-22T04:32:56;6.68;;;4.80;;
26303;SDS011;70693;48.680;8.890;2023-06-22T04:35:22;9.10;;;4.95;;
26303;SDS011;70693;48.680;8.890;2023-06-22T04:37:49;7.30;;;4.60;;
26303;SDS011;70693;48.680;8.890;2023-06-22T04:40:15;9.32;;;5.28;;
26303;SDS011;70693;48.680;8.890;2023-06-22T04:42:40;9.32;;;5.10;;
26303;SDS011;70693;48.680;8.890;2023-06-22T04:45:17;14.32;;;6.60;;
26303;SDS011;70693;48.680;8.890;2023-06-22T04:47:43;14.60;;;6.55;;
26303;SDS011;70693;48.680;8.890;2023-06-22T04:50:11;14.60;;;6.63;;
26303;SDS011;70693;48.680;8.890;2023-06-22T04:52:37;12.32;;;6.13;;
26303;SDS011;70693;48.680;8.890;2023-06-22T04:55:03;17.25;;;6.47;;
26303;SDS011;70693;48.680;8.890;2023-06-22T04:57:29;12.25;;;6.47;;
26303;SDS011;70693;48.680;8.890;2023-06-22T05:00:01;15.93;;;6.35;;
26303;SDS011;70693;48.680;8.890;2023-06-22T05:02:36;10.65;;;6.13;;
26303;SDS011;70693;48.680;8.890;2023-06-22T05:05:02;13.43;;;6.13;;
26303;SDS011;70693;48.680;8.890;2023-06-22T05:07:32;17.85;;;5.90;;
26303;SDS011;70693;48.680;8.890;2023-06-22T05:10:04;13.35;;;5.65;;
26303;SDS011;70693;48.680;8.890;2023-06-22T05:12:30;11.05;;;5.80;;
26303;SDS011;70693;48.680;8.890;2023-06-22T05:14:56;13.10;;;5.95;;
26303;SDS011;70693;48.680;8.890;2023-06-22T05:17:21;9.25;;;5.22;;
26303;SDS011;70693;48.680;8.890;2023-06-22T05:19:47;8.75;;;5.70;;
26303;SDS011;70693;48.680;8.890;2023-06-22T05:22:16;13.27;;;5.35;;
26303;SDS011;70693;48.680;8.890;2023-06-22T05:24:42;9.77;;;5.47;;
26303;SDS011;70693;48.680;8.890;2023-06-22T05:27:09;11.75;;;5.50;;
26303;SDS011;70693;48.680;8.890;2023-06-22T05:29:36;11.32;;;5.63;;
26303;SDS011;70693;48.680;8.890;2023-06-22T05:32:02;11.82;;;5.80;;
26303;SDS011;70693;48.680;8.890;2023-06-22T05:34:28;11.18;;;5.80;;
26303;SDS011;70693;48.680;8.890;2023-06-22T05:36:53;7.65;;;5.63;;
26303;SDS011;70693;48.680;8.890;2023-06-22T05:39:19;7.00;;;5.50;;
26303;SDS011;70693;48.680;8.890;2023-06-22T05:41:45;7.65;;;5.60;;
26303;SDS011;70693;48.680;8.890;2023-06-22T05:44:11;9.30;;;5.80;;
26303;SDS011;70693;48.680;8.890;2023-06-22T05:46:39;9.90;;;5.78;;
26303;SDS011;70693;48.680;8.890;2023-06-22T05:49:09;8.82;;;5.60;;
26303;SDS011;70693;48.680;8.890;2023-06-22T05:51:35;12.52;;;6.15;;
26303;SDS011;70693;48.680;8.890;2023-06-22T05:54:01;9.43;;;5.60;;
26303;SDS011;70693;48.680;8.890;2023-06-22T05:56:26;8.95;;;5.32;;
26303;SDS011;70693;48.680;8.890;2023-06-22T05:58:53;11.15;;;5.57;;
26303;SDS011;70693;48.680;8.890;2023-06-22T06:01:18;7.40;;;5.60;;
26303;SDS011;70693;48.680;8.890;2023-06-22T06:03:44;8.40;;;5.30;;
26303;SDS011;70693;48.680;8.890;2023-06-22T06:06:09;9.95;;;5.95;;
26303;SDS011;70693;48.680;8.890;2023-06-22T06:08:36;6.90;;;4.93;;
26303;SDS011;70693;48.680;8.890;2023-06-22T06:11:04;12.48;;;5.65;;
26303;SDS011;70693;48.680;8.890;2023-06-22T06:13:30;7.35;;;5.25;;
26303;SDS011;70693;48.680;8.890;2023-06-22T06:15:56;9.68;;;5.45;;
26303;SDS011;70693;48.680;8.890;2023-06-22T06:18:22;7.05;;;4.97;;
26303;SDS011;70693;48.680;8.890;2023-06-22T06:20:47;9.55;;;5.13;;
26303;SDS011;70693;48.680;8.890;2023-06-22T06:23:13;8.32;;;5.45;;
26303;SDS011;70693;48.680;8.890;2023-06-22T06:25:39;9.60;;;5.20;;
26303;SDS011;70693;48.680;8.890;2023-06-22T06:28:04;6.88;;;4.85;;
26303;SDS011;70693;48.680;8.890;2023-06-22T06:30:30;9.32;;;5.50;;
26303;SDS011;70693;48.680;8.890;2023-06-22T06:32:56;7.13;;;5.18;;
26303;SDS011;70693;48.680;8.890;2023-06-22T06:35:21;5.85;;;4.90;;
26303;SDS011;70693;48.680;8.890;2023-06-22T06:37:47;7.00;;;5.07;;
26303;SDS011;70693;48.680;8.890;2023-06-22T06:40:15;8.32;;;4.95;;
26303;SDS011;70693;48.680;8.890;2023-06-22T06:42:42;8.90;;;5.03;;
26303;SDS011;70693;48.680;8.890;2023-06-22T06:45:13;8.55;;;5.30;;
26303;SDS011;70693;48.680;8.890;2023-06-22T06:47:47;10.27;;;5.35;;
26303;SDS011;70693;48.680;8.890;2023-06-22T06:50:13;8.90;;;4.57;;
26303;SDS011;70693;48.680;8.890;2023-06-22T06:52:39;6.53;;;4.70;;
26303;SDS011;70693;48.680;8.890;2023-06-22T06:55:05;7.40;;;5.43;;
26303;SDS011;70693;48.680;8.890;2023-06-22T06:57:33;6.50;;;4.93;;
26303;SDS011;70693;48.680;8.890;2023-06-22T06:59:59;9.60;;;4.78;;
26303;SDS011;70693;48.680;8.890;2023-06-22T07:02:25;6.35;;;4.97;;
26303;SDS011;70693;48.680;8.890;2023-06-22T07:04:52;6.07;;;4.75;;
26303;SDS011;70693;48.680;8.890;2023-06-22T07:07:20;17.92;;;5.35;;
26303;SDS011;70693;48.680;8.890;2023-06-22T07:09:46;13.13;;;4.80;;
26303;SDS011;70693;48.680;8.890;2023-06-22T07:12:11;8.15;;;5.30;;
26303;SDS011;70693;48.680;8.890;2023-06-22T07:14:37;11.27;;;5.47;;
26303;SDS011;70693;48.680;8.890;2023-06-22T07:17:03;7.50;;;4.70;;
26303;SDS011;70693;48.680;8.890;2023-06-22T07:19:28;15.90;;;5.10;;
26303;SDS011;70693;48.680;8.890;2023-06-22T07:21:56;11.40;;;5.35;;
26303;SDS011;70693;48.680;8.890;2023-06-22T07:24:22;8.57;;;4.90;;
26303;SDS011;70693;48.680;8.890;2023-06-22T07:26:48;8.05;;;4.60;;
26303;SDS011;70693;48.680;8.890;2023-06-22T07:29:16;6.22;;;4.55;;
26303;SDS011;70693;48.680;8.890;2023-06-22T07:31:42;8.57;;;4.95;;
26303;SDS011;70693;48.680;8.890;2023-06-22T07:34:08;8.30;;;4.78;;
26303;SDS011;70693;48.680;8.890;2023-06-22T07:36:34;9.35;;;5.25;;
26303;SDS011;70693;48.680;8.890;2023-06-22T07:39:00;6.75;;;4.10;;
26303;SDS011;70693;48.680;8.890;2023-06-22T07:41:29;7.63;;;4.25;;
26303;SDS011;70693;48.680;8.890;2023-06-22T07:43:55;8.40;;;4.55;;
26303;SDS011;70693;48.680;8.890;2023-06-22T07:46:21;14.63;;;5.18;;
26303;SDS011;70693;48.680;8.890;2023-06-22T07:48:47;14.85;;;5.43;;
26303;SDS011;70693;48.680;8.890;2023-06-22T07:51:12;11.70;;;4.78;;
26303;SDS011;70693;48.680;8.890;2023-06-22T07:53:39;11.32;;;5.40;;
26303;SDS011;70693;48.680;8.890;2023-06-22T07:56:11;22.17;;;5.55;;
26303;SDS011;70693;48.680;8.890;2023-06-22T07:58:38;9.40;;;4.95;;
26303;SDS011;70693;48.680;8.890;2023-06-22T08:01:03;8.43;;;4.70;;
26303;SDS011;70693;48.680;8.890;2023-06-22T08:03:29;15.25;;;5.65;;
26303;SDS011;70693;48.680;8.890;2023-06-22T08:05:55;14.15;;;5.15;;
26303;SDS011;70693;48.680;8.890;2023-06-22T08:08:21;12.30;;;4.88;;
26303;SDS011;70693;48.680;8.890;2023-06-22T08:10:46;8.98;;;4.88;;
26303;SDS011;70693;48.680;8.890;2023-06-22T08:13:12;9.20;;;4.70;;
26303;SDS011;70693;48.680;8.890;2023-06-22T08:15:38;7.20;;;4.28;;
26303;SDS011;70693;48.680;8.890;2023-06-22T08:18:03;8.40;;;4.65;;
26303;SDS011;70693;48.680;8.890;2023-06-22T08:20:29;9.23;;;4.63;;
26303;SDS011;70693;48.680;8.890;2023-06-22T08:22:55;9.63;;;4.95;;
26303;SDS011;70693;48.680;8.890;2023-06-22T08:25:22;10.73;;;4.97;;
26303;SDS011;70693;48.680;8.890;2023-06-22T08:27:48;14.63;;;5.45;;
26303;SDS011;70693;48.680;8.890;2023-06-22T08:30:14;11.75;;;5.28;;
26303;SDS011;70693;48.680;8.890;2023-06-22T08:32:40;11.00;;;5.47;;
26303;SDS011;70693;48.680;8.890;2023-06-22T08:35:06;13.35;;;5.90;;
26303;SDS011;70693;48.680;8.890;2023-06-22T08:37:36;12.13;;;5.43;;
26303;SDS011;70693;48.680;8.890;2023-06-22T08:40:02;11.32;;;5.53;;
26303;SDS011;70693;48.680;8.890;2023-06-22T08:42:33;14.68;;;5.55;;
26303;SDS011;70693;48.680;8.890;2023-06-22T08:44:59;15.75;;;5.68;;
26303;SDS011;70693;48.680;8.890;2023-06-22T08:47:24;9.43;;;4.93;;
26303;SDS011;70693;48.680;8.890;2023-06-22T08:49:52;20.52;;;5.88;;
26303;SDS011;70693;48.680;8.890;2023-06-22T08:52:18;11.90;;;5.18;;
26303;SDS011;70693;48.680;8.890;2023-06-22T08:54:45;11.10;;;5.10;;
26303;SDS011;70693;48.680;8.890;2023-06-22T08:57:11;14.35;;;5.30;;
26303;SDS011;70693;48.680;8.890;2023-06-22T08:59:36;10.93;;;5.18;;
26303;SDS011;70693;48.680;8.890;2023-06-22T09:02:02;12.57;;;4.93;;
26303;SDS011;70693;48.680;8.890;2023-06-22T09:04:28;11.77;;;5.25;;
26303;SDS011;70693;48.680;8.890;2023-06-22T09:06:53;8.75;;;5.38;;
26303;SDS011;70693;48.680;8.890;2023-06-22T09:09:20;12.80;;;5.22;;
26303;SDS011;70693;48.680;8.890;2023-06-22T09:11:46;10.85;;;4.70;;
26303;SDS011;70693;48.680;8.890;2023-06-22T09:14:12;7.55;;;4.55;;
26303;SDS011;70693;48.680;8.890;2023-06-22T09:16:38;9.20;;;5.05;;
26303;SDS011;70693;48.680;8.890;2023-06-22T09:19:03;7.43;;;4.15;;
26303;SDS011;70693;48.680;8.890;2023-06-22T09:21:29;12.30;;;5.10;;
26303;SDS011;70693;48.680;8.890;2023-06-22T09:23:55;7.22;;;4.55;;
26303;SDS011;70693;48.680;8.890;2023-06-22T09:26:21;12.10;;;4.57;;
26303;SDS011;70693;48.680;8.890;2023-06-22T09:28:48;9.82;;;4.40;;
26303;SDS011;70693;48.680;8.890;2023-06-22T09:31:14;7.35;;;4.15;;
26303;SDS011;70693;48.680;8.890;2023-06-22T09:33:41;10.32;;;4.45;;
26303;SDS011;70693;48.680;8.890;2023-06-22T09:36:07;7.45;;;4.30;;
26303;SDS011;70693;48.680;8.890;2023-06-22T09:38:36;11.85;;;4.57;;
26303;SDS011;70693;48.680;8.890;2023-06-22T09:41:02;7.35;;;4.55;;
26303;SDS011;70693;48.680;8.890;2023-06-22T09:43:28;9.70;;;4.55;;
26303;SDS011;70693;48.680;8.890;2023-06-22T09:45:54;6.93;;;4.55;;
26303;SDS011;70693;48.680;8.890;2023-06-22T09:48:20;7.95;;;4.53;;
26303;SDS011;70693;48.680;8.890;2023-06-22T09:50:46;5.43;;;4.18;;
26303;SDS011;70693;48.680;8.890;2023-06-22T09:53:11;8.75;;;4.05;;
26303;SDS011;70693;48.680;8.890;2023-06-22T09:55:37;10.32;;;4.03;;
26303;SDS011;70693;48.680;8.890;2023-06-22T09:58:02;7.18;;;4.30;;
26303;SDS011;70693;48.680;8.890;2023-06-22T10:00:28;5.18;;;3.85;;
26303;SDS011;70693;48.680;8.890;2023-06-22T10:02:54;7.85;;;4.38;;
26303;SDS011;70693;48.680;8.890;2023-06-22T10:05:21;7.32;;;4.07;;
26303;SDS011;70693;48.680;8.890;2023-06-22T10:07:46;6.72;;;4.03;;
26303;SDS011;70693;48.680;8.890;2023-06-22T10:10:12;7.97;;;3.88;;
26303;SDS011;70693;48.680;8.890;2023-06-22T10:12:43;6.45;;;4.20;;
26303;SDS011;70693;48.680;8.890;2023-06-22T10:15:13;8.73;;;3.92;;
26303;SDS011;70693;48.680;8.890;2023-06-22T10:17:39;6.82;;;4.00;;
26303;SDS011;70693;48.680;8.890;2023-06-22T10:20:06;7.90;;;4.25;;
26303;SDS011;70693;48.680;8.890;2023-06-22T10:22:36;5.35;;;4.10;;
26303;SDS011;70693;48.680;8.890;2023-06-22T10:25:03;5.40;;;3.83;;
26303;SDS011;70693;48.680;8.890;2023-06-22T10:27:29;7.07;;;3.75;;
26303;SDS011;70693;48.680;8.890;2023-06-22T10:29:56;5.85;;;4.20;;
26303;SDS011;70693;48.680;8.890;2023-06-22T10:32:22;6.45;;;4.20;;
26303;SDS011;70693;48.680;8.890;2023-06-22T10:34:47;7.05;;;3.95;;
26303;SDS011;70693;48.680;8.890;2023-06-22T10:37:13;10.07;;;4.60;;
26303;SDS011;70693;48.680;8.890;2023-06-22T10:39:38;8.30;;;3.72;;
26303;SDS011;70693;48.680;8.890;2023-06-22T10:42:04;8.30;;;4.13;;
26303;SDS011;70693;48.680;8.890;2023-06-22T10:44:30;8.60;;;3.80;;
26303;SDS011;70693;48.680;8.890;2023-06-22T10:46:56;6.82;;;3.75;;
26303;SDS011;70693;48.680;8.890;2023-06-22T10:49:21;7.63;;;3.80;;
26303;SDS011;70693;48.680;8.890;2023-06-22T10:51:47;7.50;;;4.07;;
26303;SDS011;70693;48.680;8.890;2023-06-22T10:54:12;7.72;;;3.90;;
26303;SDS011;70693;48.680;8.890;2023-06-22T10:56:39;7.55;;;4.20;;
26303;SDS011;70693;48.680;8.890;2023-06-22T10:59:05;7.43;;;4.40;;
26303;SDS011;70693;48.680;8.890;2023-06-22T11:01:31;5.85;;;3.42;;
26303;SDS011;70693;48.680;8.890;2023-06-22T11:03:58;5.45;;;3.30;;
26303;SDS011;70693;48.680;8.890;2023-06-22T11:06:24;7.13;;;3.60;;
26303;SDS011;70693;48.680;8.890;2023-06-22T11:08:49;4.85;;;3.40;;
26303;SDS011;70693;48.680;8.890;2023-06-22T11:11:15;5.32;;;3.75;;
26303;SDS011;70693;48.680;8.890;2023-06-22T11:13:42;7.28;;;3.70;;
26303;SDS011;70693;48.680;8.890;2023-06-22T11:16:09;7.20;;;3.55;;
26303;SDS011;70693;48.680;8.890;2023-06-22T11:18:35;5.40;;;3.47;;
26303;SDS011;70693;48.680;8.890;2023-06-22T11:21:01;5.80;;;3.42;;
26303;SDS011;70693;48.680;8.890;2023-06-22T11:23:26;9.07;;;3.97;;
26303;SDS011;70693;48.680;8.890;2023-06-22T11:25:53;4.65;;;3.50;;
26303;SDS011;70693;48.680;8.890;2023-06-22T11:28:19;6.25;;;3.55;;
26303;SDS011;70693;48.680;8.890;2023-06-22T11:30:45;6.35;;;3.47;;
26303;SDS011;70693;48.680;8.890;2023-06-22T11:33:11;5.45;;;3.22;;
26303;SDS011;70693;48.680;8.890;2023-06-22T11:35:36;6.07;;;3.63;;
26303;SDS011;70693;48.680;8.890;2023-06-22T11:38:02;5.63;;;3.30;;
26303;SDS011;70693;48.680;8.890;2023-06-22T11:40:29;5.57;;;3.50;;
26303;SDS011;70693;48.680;8.890;2023-06-22T11:42:55;5.28;;;3.47;;
26303;SDS011;70693;48.680;8.890;2023-06-22T11:45:20;5.05;;;3.70;;
26303;SDS011;70693;48.680;8.890;2023-06-22T11:47:46;5.40;;;3.63;;
26303;SDS011;70693;48.680;8.890;2023-06-22T11:50:12;6.38;;;2.90;;
26303;SDS011;70693;48.680;8.890;2023-06-22T11:52:38;7.43;;;3.38;;
26303;SDS011;70693;48.680;8.890;2023-06-22T11:55:03;6.95;;;3.67;;
26303;SDS011;70693;48.680;8.890;2023-06-22T11:57:33;5.00;;;3.45;;
26303;SDS011;70693;48.680;8.890;2023-06-22T11:59:59;7.10;;;3.40;;
26303;SDS011;70693;48.680;8.890;2023-06-22T12:02:25;7.00;;;3.90;;
26303;SDS011;70693;48.680;8.890;2023-06-22T12:04:50;5.75;;;3.72;;
26303;SDS011;70693;48.680;8.890;2023-06-22T12:07:17;5.20;;;3.50;;
26303;SDS011;70693;48.680;8.890;2023-06-22T12:09:43;6.15;;;3.33;;
26303;SDS011;70693;48.680;8.890;2023-06-22T12:12:09;4.70;;;3.22;;
26303;SDS011;70693;48.680;8.890;2023-06-22T12:14:35;5.25;;;3.40;;
26303;SDS011;70693;48.680;8.890;2023-06-22T12:17:00;6.53;;;3.90;;
26303;SDS011;70693;48.680;8.890;2023-06-22T12:19:26;4.80;;;3.50;;
26303;SDS011;70693;48.680;8.890;2023-06-22T12:21:52;9.63;;;4.03;;
26303;SDS011;70693;48.680;8.890;2023-06-22T12:24:17;8.43;;;3.53;;
26303;SDS011;70693;48.680;8.890;2023-06-22T12:26:43;5.07;;;3.35;;
26303;SDS011;70693;48.680;8.890;2023-06-22T12:29:09;4.35;;;3.40;;
26303;SDS011;70693;48.680;8.890;2023-06-22T12:31:35;7.45;;;3.30;;
26303;SDS011;70693;48.680;8.890;2023-06-22T12:34:03;6.10;;;3.30;;
26303;SDS011;70693;48.680;8.890;2023-06-22T12:36:29;6.50;;;3.38;;
26303;SDS011;70693;48.680;8.890;2023-06-22T12:38:55;5.82;;;3.20;;
26303;SDS011;70693;48.680;8.890;2023-06-22T12:41:20;5.18;;;3.17;;
26303;SDS011;70693;48.680;8.890;2023-06-22T12:43:46;5.03;;;3.35;;
26303;SDS011;70693;48.680;8.890;2023-06-22T12:46:11;5.75;;;3.63;;
26303;SDS011;70693;48.680;8.890;2023-06-22T12:48:37;5.95;;;3.45;;
26303;SDS011;70693;48.680;8.890;2023-06-22T12:51:07;5.60;;;3.63;;
26303;SDS011;70693;48.680;8.890;2023-06-22T12:53:33;5.50;;;3.58;;
26303;SDS011;70693;48.680;8.890;2023-06-22T12:55:59;5.55;;;3.80;;
26303;SDS011;70693;48.680;8.890;2023-06-22T12:58:24;5.90;;;3.42;;
26303;SDS011;70693;48.680;8.890;2023-06-22T13:00:50;4.72;;;3.50;;
26303;SDS011;70693;48.680;8.890;2023-06-22T13:03:16;6.47;;;3.63;;
26303;SDS011;70693;48.680;8.890;2023-06-22T13:05:41;5.40;;;3.33;;
26303;SDS011;70693;48.680;8.890;2023-06-22T13:08:07;6.47;;;3.13;;
26303;SDS011;70693;48.680;8.890;2023-06-22T13:10:33;8.65;;;3.67;;
26303;SDS011;70693;48.680;8.890;2023-06-22T13:12:59;5.50;;;3.70;;
26303;SDS011;70693;48.680;8.890;2023-06-22T13:15:28;5.68;;;3.33;;
26303;SDS011;70693;48.680;8.890;2023-06-22T13:17:55;10.63;;;3.72;;
26303;SDS011;70693;48.680;8.890;2023-06-22T13:20:21;6.50;;;3.83;;
26303;SDS011;70693;48.680;8.890;2023-06-22T13:22:46;5.22;;;4.00;;
26303;SDS011;70693;48.680;8.890;2023-06-22T13:25:12;5.25;;;3.30;;
26303;SDS011;70693;48.680;8.890;2023-06-22T13:27:39;6.60;;;3.63;;
26303;SDS011;70693;48.680;8.890;2023-06-22T13:30:05;5.75;;;3.78;;
26303;SDS011;70693;48.680;8.890;2023-06-22T13:32:31;4.22;;;3.15;;
26303;SDS011;70693;48.680;8.890;2023-06-22T13:34:57;5.82;;;3.47;;
26303;SDS011;70693;48.680;8.890;2023-06-22T13:37:23;8.23;;;3.60;;
26303;SDS011;70693;48.680;8.890;2023-06-22T13:39:48;9.75;;;4.20;;
26303;SDS011;70693;48.680;8.890;2023-06-22T13:42:14;19.88;;;5.90;;
26303;SDS011;70693;48.680;8.890;2023-06-22T13:44:39;13.55;;;5.70;;
26303;SDS011;70693;48.680;8.890;2023-06-22T13:47:05;14.10;;;5.95;;
26303;SDS011;70693;48.680;8.890;2023-06-22T13:49:32;15.35;;;6.13;;
26303;SDS011;70693;48.680;8.890;2023-06-22T13:51:57;9.90;;;5.40;;
26303;SDS011;70693;48.680;8.890;2023-06-22T13:54:23;11.68;;;5.38;;
26303;SDS011;70693;48.680;8.890;2023-06-22T13:56:49;15.95;;;5.82;;
26303;SDS011;70693;48.680;8.890;2023-06-22T13:59:14;8.82;;;4.80;;
26303;SDS011;70693;48.680;8.890;2023-06-22T14:01:40;15.07;;;5.53;;
26303;SDS011;70693;48.680;8.890;2023-06-22T14:04:06;13.48;;;5.35;;
26303;SDS011;70693;48.680;8.890;2023-06-22T14:06:32;12.25;;;5.20;;
26303;SDS011;70693;48.680;8.890;2023-06-22T14:08:59;10.90;;;5.20;;
26303;SDS011;70693;48.680;8.890;2023-06-22T14:11:25;10.60;;;5.43;;
26303;SDS011;70693;48.680;8.890;2023-06-22T14:13:50;11.02;;;4.60;;
26303;SDS011;70693;48.680;8.890;2023-06-22T14:16:16;8.77;;;4.88;;
26303;SDS011;70693;48.680;8.890;2023-06-22T14:18:42;9.90;;;4.70;;
26303;SDS011;70693;48.680;8.890;2023-06-22T14:21:07;10.68;;;5.18;;
26303;SDS011;70693;48.680;8.890;2023-06-22T14:23:33;9.30;;;4.80;;
26303;SDS011;70693;48.680;8.890;2023-06-22T14:25:59;10.63;;;4.97;;
26303;SDS011;70693;48.680;8.890;2023-06-22T14:28:25;8.25;;;4.85;;
26303;SDS011;70693;48.680;8.890;2023-06-22T14:30:50;11.80;;;5.00;;
26303;SDS011;70693;48.680;8.890;2023-06-22T14:33:16;10.18;;;4.90;;
26303;SDS011;70693;48.680;8.890;2023-06-22T14:35:41;8.77;;;4.65;;
26303;SDS011;70693;48.680;8.890;2023-06-22T14:38:07;9.38;;;4.53;;
26303;SDS011;70693;48.680;8.890;2023-06-22T14:40:33;8.20;;;4.72;;
26303;SDS011;70693;48.680;8.890;2023-06-22T14:42:58;8.73;;;4.28;;
26303;SDS011;70693;48.680;8.890;2023-06-22T14:45:24;10.35;;;3.90;;
26303;SDS011;70693;48.680;8.890;2023-06-22T14:47:50;7.70;;;4.30;;
26303;SDS011;70693;48.680;8.890;2023-06-22T14:50:15;8.70;;;4.30;;
26303;SDS011;70693;48.680;8.890;2023-06-22T14:52:41;8.68;;;4.03;;